sensor_id;sensor_type;location;lat;lon;timestamp;pressure;altitude;pressure_sealevel;temperature;humidity
25510;BME280;13413;52.336;21.200;2023-05-25T00:02:03;100770.16;;;17.47;68.39
25510;BME280;13413;52.336;21.200;2023-05-25T00:04:57;100764.63;;;17.33;68.60
25510;BME280;13413;52.336;21.200;2023-05-25T00:08:05;100773.96;;;17.25;68.83
25510;BME280;13413;52.336;21.200;2023-05-25T00:10:58;100772.98;;;17.14;68.81
25510;BME280;13413;52.336;21.200;2023-05-25T00:14:06;100773.90;;;17.08;69.12
25510;BME280;13413;52.336;21.200;2023-05-25T00:16:59;100775.52;;;16.98;69.29
25510;BME280;13413;52.336;21.200;2023-05-25T00:19:53;100776.91;;;16.89;69.51
25510;BME280;13413;52.336;21.200;2023-05-25T00:22:46;100783.67;;;16.85;69.54
25510;BME280;13413;52.336;21.200;2023-05-25T00:25:40;100786.11;;;16.83;69.62
25510;BME280;13413;52.336;21.200;2023-05-25T00:28:34;100789.31;;;16.85;69.73
25510;BME280;13413;52.336;21.200;2023-05-25T00:31:28;100788.26;;;16.89;69.88
25510;BME280;13413;52.336;21.200;2023-05-25T00:34:23;100789.40;;;16.79;70.28
25510;BME280;13413;52.336;21.200;2023-05-25T00:37:17;100792.81;;;16.73;70.52
25510;BME280;13413;52.336;21.200;2023-05-25T00:40:11;100792.55;;;16.62;70.95
25510;BME280;13413;52.336;21.200;2023-05-25T00:48:40;100789.45;;;16.55;70.57
25510;BME280;13413;52.336;21.200;2023-05-25T00:51:33;100788.05;;;16.53;70.79
25510;BME280;13413;52.336;21.200;2023-05-25T00:54:29;100786.77;;;16.46;71.02
25510;BME280;13413;52.336;21.200;2023-05-25T00:57:23;100787.66;;;16.41;70.83
25510;BME280;13413;52.336;21.200;2023-05-25T01:00:18;100785.77;;;16.44;70.82
25510;BME280;13413;52.336;21.200;2023-05-25T01:03:18;100785.08;;;16.43;70.87
25510;BME280;13413;52.336;21.200;2023-05-25T01:06:15;100790.27;;;16.43;70.75
25510;BME280;13413;52.336;21.200;2023-05-25T01:09:11;100792.52;;;16.41;70.86
25510;BME280;13413;52.336;21.200;2023-05-25T01:12:10;100792.43;;;16.32;71.40
25510;BME280;13413;52.336;21.200;2023-05-25T01:15:06;100794.16;;;16.20;71.21
25510;BME280;13413;52.336;21.200;2023-05-25T01:18:00;100788.61;;;16.20;71.37
25510;BME280;13413;52.336;21.200;2023-05-25T01:21:00;100789.64;;;16.20;71.63
25510;BME280;13413;52.336;21.200;2023-05-25T01:24:01;100787.45;;;16.18;71.67
25510;BME280;13413;52.336;21.200;2023-05-25T01:26:59;100793.66;;;16.17;71.61
25510;BME280;13413;52.336;21.200;2023-05-25T01:29:56;100796.73;;;16.15;71.95
25510;BME280;13413;52.336;21.200;2023-05-25T01:32:51;100796.16;;;16.13;72.18
25510;BME280;13413;52.336;21.200;2023-05-25T01:35:44;100793.29;;;16.04;72.67
25510;BME280;13413;52.336;21.200;2023-05-25T01:38:40;100793.19;;;15.91;72.93
25510;BME280;13413;52.336;21.200;2023-05-25T01:41:35;100793.55;;;15.90;72.51
25510;BME280;13413;52.336;21.200;2023-05-25T01:44:29;100797.17;;;15.89;73.07
25510;BME280;13413;52.336;21.200;2023-05-25T01:47:30;100794.96;;;15.82;72.97
25510;BME280;13413;52.336;21.200;2023-05-25T01:50:32;100793.67;;;15.70;73.19
25510;BME280;13413;52.336;21.200;2023-05-25T01:53:35;100793.70;;;15.69;73.10
25510;BME280;13413;52.336;21.200;2023-05-25T01:56:32;100793.70;;;15.71;73.11
25510;BME280;13413;52.336;21.200;2023-05-25T01:59:29;100793.44;;;15.59;74.17
25510;BME280;13413;52.336;21.200;2023-05-25T02:02:24;100793.81;;;15.49;74.48
25510;BME280;13413;52.336;21.200;2023-05-25T02:05:20;100795.71;;;15.52;74.57
25510;BME280;13413;52.336;21.200;2023-05-25T02:08:14;100801.66;;;15.57;74.37
25510;BME280;13413;52.336;21.200;2023-05-25T02:11:08;100800.05;;;15.64;74.19
25510;BME280;13413;52.336;21.200;2023-05-25T02:14:02;100797.03;;;15.75;74.11
25510;BME280;13413;52.336;21.200;2023-05-25T02:16:56;100802.63;;;15.78;74.11
25510;BME280;13413;52.336;21.200;2023-05-25T02:19:50;100808.09;;;15.74;74.07
25510;BME280;13413;52.336;21.200;2023-05-25T02:22:44;100806.17;;;15.76;74.28
25510;BME280;13413;52.336;21.200;2023-05-25T02:25:37;100805.29;;;15.82;74.04
25510;BME280;13413;52.336;21.200;2023-05-25T02:28:31;100803.89;;;15.82;74.07
25510;BME280;13413;52.336;21.200;2023-05-25T02:31:24;100802.92;;;15.80;74.02
25510;BME280;13413;52.336;21.200;2023-05-25T02:34:19;100807.63;;;15.89;73.98
25510;BME280;13413;52.336;21.200;2023-05-25T02:37:13;100806.33;;;15.93;74.21
25510;BME280;13413;52.336;21.200;2023-05-25T02:40:10;100808.91;;;15.91;73.98
25510;BME280;13413;52.336;21.200;2023-05-25T02:43:04;100807.16;;;15.95;74.07
25510;BME280;13413;52.336;21.200;2023-05-25T02:45:57;100814.75;;;16.00;74.24
25510;BME280;13413;52.336;21.200;2023-05-25T02:48:53;100816.05;;;15.88;74.43
25510;BME280;13413;52.336;21.200;2023-05-25T02:51:47;100816.84;;;15.80;74.59
25510;BME280;13413;52.336;21.200;2023-05-25T02:54:42;100821.94;;;15.79;74.70
25510;BME280;13413;52.336;21.200;2023-05-25T02:57:37;100819.40;;;15.82;74.70
25510;BME280;13413;52.336;21.200;2023-05-25T03:00:29;100816.46;;;15.84;74.60
25510;BME280;13413;52.336;21.200;2023-05-25T03:08:57;100821.88;;;15.90;74.85
25510;BME280;13413;52.336;21.200;2023-05-25T03:11:52;100826.80;;;15.87;75.14
25510;BME280;13413;52.336;21.200;2023-05-25T03:14:47;100829.39;;;15.86;74.89
25510;BME280;13413;52.336;21.200;2023-05-25T03:17:41;100833.96;;;15.82;75.31
25510;BME280;13413;52.336;21.200;2023-05-25T03:20:35;100840.94;;;15.77;75.42
25510;BME280;13413;52.336;21.200;2023-05-25T03:23:30;100848.48;;;15.78;75.11
25510;BME280;13413;52.336;21.200;2023-05-25T03:29:18;100856.05;;;16.00;75.06
25510;BME280;13413;52.336;21.200;2023-05-25T03:32:12;100859.11;;;15.96;75.28
25510;BME280;13413;52.336;21.200;2023-05-25T03:35:08;100860.16;;;15.89;75.15
25510;BME280;13413;52.336;21.200;2023-05-25T03:38:03;100859.58;;;15.88;75.36
25510;BME280;13413;52.336;21.200;2023-05-25T03:40:57;100859.27;;;15.78;75.72
25510;BME280;13413;52.336;21.200;2023-05-25T03:43:51;100857.11;;;15.75;75.72
25510;BME280;13413;52.336;21.200;2023-05-25T03:46:45;100855.67;;;15.76;76.03
25510;BME280;13413;52.336;21.200;2023-05-25T03:49:39;100853.67;;;15.72;76.32
25510;BME280;13413;52.336;21.200;2023-05-25T03:52:34;100855.05;;;15.75;75.88
25510;BME280;13413;52.336;21.200;2023-05-25T03:55:31;100857.84;;;15.81;75.99
25510;BME280;13413;52.336;21.200;2023-05-25T03:58:26;100858.91;;;15.84;75.82
25510;BME280;13413;52.336;21.200;2023-05-25T04:01:19;100863.45;;;15.90;76.06
25510;BME280;13413;52.336;21.200;2023-05-25T04:04:14;100861.25;;;15.87;76.17
25510;BME280;13413;52.336;21.200;2023-05-25T04:07:07;100860.52;;;15.85;76.19
25510;BME280;13413;52.336;21.200;2023-05-25T04:10:01;100856.91;;;15.84;76.36
25510;BME280;13413;52.336;21.200;2023-05-25T04:12:55;100857.02;;;15.83;76.25
25510;BME280;13413;52.336;21.200;2023-05-25T04:15:49;100861.02;;;15.88;76.26
25510;BME280;13413;52.336;21.200;2023-05-25T04:18:43;100864.58;;;15.93;76.30
25510;BME280;13413;52.336;21.200;2023-05-25T04:21:37;100867.48;;;15.89;76.61
25510;BME280;13413;52.336;21.200;2023-05-25T04:24:32;100866.38;;;15.90;76.27
25510;BME280;13413;52.336;21.200;2023-05-25T04:27:25;100867.70;;;16.01;76.37
25510;BME280;13413;52.336;21.200;2023-05-25T04:30:20;100866.52;;;16.02;76.39
25510;BME280;13413;52.336;21.200;2023-05-25T04:33:12;100866.25;;;15.98;76.41
25510;BME280;13413;52.336;21.200;2023-05-25T04:36:08;100867.05;;;16.02;76.50
25510;BME280;13413;52.336;21.200;2023-05-25T04:39:03;100871.92;;;16.03;76.65
25510;BME280;13413;52.336;21.200;2023-05-25T04:41:56;100869.96;;;16.01;76.53
25510;BME280;13413;52.336;21.200;2023-05-25T04:44:50;100870.18;;;16.01;76.68
25510;BME280;13413;52.336;21.200;2023-05-25T04:47:44;100869.85;;;16.02;76.65
25510;BME280;13413;52.336;21.200;2023-05-25T04:50:41;100868.91;;;16.05;76.52
25510;BME280;13413;52.336;21.200;2023-05-25T04:53:35;100872.70;;;16.12;76.69
25510;BME280;13413;52.336;21.200;2023-05-25T04:56:29;100874.90;;;16.07;76.65
25510;BME280;13413;52.336;21.200;2023-05-25T04:59:23;100877.61;;;16.08;76.60
25510;BME280;13413;52.336;21.200;2023-05-25T05:02:18;100880.28;;;16.14;76.70
25510;BME280;13413;52.336;21.200;2023-05-25T05:05:12;100886.79;;;16.13;76.53
25510;BME280;13413;52.336;21.200;2023-05-25T05:08:06;100889.29;;;16.18;76.49
25510;BME280;13413;52.336;21.200;2023-05-25T05:11:00;100888.15;;;16.23;76.41
25510;BME280;13413;52.336;21.200;2023-05-25T05:13:55;100889.45;;;16.28;76.38
25510;BME280;13413;52.336;21.200;2023-05-25T05:16:49;100887.83;;;16.26;76.36
25510;BME280;13413;52.336;21.200;2023-05-25T05:25:26;100888.80;;;16.21;76.44
25510;BME280;13413;52.336;21.200;2023-05-25T05:28:20;100893.46;;;16.17;76.55
25510;BME280;13413;52.336;21.200;2023-05-25T05:31:14;100893.27;;;16.14;76.89
25510;BME280;13413;52.336;21.200;2023-05-25T05:34:08;100896.96;;;16.13;76.79
25510;BME280;13413;52.336;21.200;2023-05-25T05:37:02;100894.00;;;16.14;76.78
25510;BME280;13413;52.336;21.200;2023-05-25T05:39:56;100902.88;;;16.17;76.88
25510;BME280;13413;52.336;21.200;2023-05-25T05:42:50;100909.16;;;16.15;76.77
25510;BME280;13413;52.336;21.200;2023-05-25T05:45:45;100912.16;;;16.16;76.83
25510;BME280;13413;52.336;21.200;2023-05-25T05:48:39;100918.34;;;16.09;76.99
25510;BME280;13413;52.336;21.200;2023-05-25T05:51:34;100927.75;;;16.04;77.01
25510;BME280;13413;52.336;21.200;2023-05-25T05:54:28;100931.11;;;16.09;77.02
25510;BME280;13413;52.336;21.200;2023-05-25T05:57:22;100931.12;;;16.18;77.08
25510;BME280;13413;52.336;21.200;2023-05-25T06:00:18;100931.85;;;16.15;76.82
25510;BME280;13413;52.336;21.200;2023-05-25T06:03:12;100935.67;;;16.16;77.02
25510;BME280;13413;52.336;21.200;2023-05-25T06:06:07;100940.02;;;16.13;77.02
25510;BME280;13413;52.336;21.200;2023-05-25T06:09:01;100945.27;;;16.11;76.87
25510;BME280;13413;52.336;21.200;2023-05-25T06:11:55;100945.73;;;16.13;76.87
25510;BME280;13413;52.336;21.200;2023-05-25T06:14:49;100949.25;;;16.17;76.90
25510;BME280;13413;52.336;21.200;2023-05-25T06:17:43;100949.20;;;16.26;76.67
25510;BME280;13413;52.336;21.200;2023-05-25T06:20:37;100957.64;;;16.33;76.61
25510;BME280;13413;52.336;21.200;2023-05-25T06:23:31;100959.04;;;16.30;76.62
25510;BME280;13413;52.336;21.200;2023-05-25T06:26:25;100959.71;;;16.27;76.72
25510;BME280;13413;52.336;21.200;2023-05-25T06:29:19;100962.09;;;16.20;76.76
25510;BME280;13413;52.336;21.200;2023-05-25T06:32:13;100959.50;;;16.21;76.80
25510;BME280;13413;52.336;21.200;2023-05-25T06:35:08;100961.33;;;16.22;76.87
25510;BME280;13413;52.336;21.200;2023-05-25T06:38:04;100957.26;;;16.29;76.91
25510;BME280;13413;52.336;21.200;2023-05-25T06:43:52;100957.14;;;16.43;76.51
25510;BME280;13413;52.336;21.200;2023-05-25T06:46:47;100958.14;;;16.41;76.49
25510;BME280;13413;52.336;21.200;2023-05-25T06:49:41;100961.02;;;16.32;76.46
25510;BME280;13413;52.336;21.200;2023-05-25T06:52:35;100960.12;;;16.33;76.60
25510;BME280;13413;52.336;21.200;2023-05-25T06:55:29;100965.77;;;16.31;76.55
25510;BME280;13413;52.336;21.200;2023-05-25T06:58:23;100961.14;;;16.41;76.69
25510;BME280;13413;52.336;21.200;2023-05-25T07:01:17;100960.35;;;16.49;76.57
25510;BME280;13413;52.336;21.200;2023-05-25T07:04:11;100960.46;;;16.54;76.59
25510;BME280;13413;52.336;21.200;2023-05-25T07:07:18;100959.24;;;16.55;76.40
25510;BME280;13413;52.336;21.200;2023-05-25T07:10:13;100964.69;;;16.60;76.28
25510;BME280;13413;52.336;21.200;2023-05-25T07:13:08;100959.47;;;16.62;76.28
25510;BME280;13413;52.336;21.200;2023-05-25T07:16:03;100959.51;;;16.52;76.16
25510;BME280;13413;52.336;21.200;2023-05-25T07:18:57;100961.39;;;16.49;76.24
25510;BME280;13413;52.336;21.200;2023-05-25T07:21:51;100962.52;;;16.53;76.46
25510;BME280;13413;52.336;21.200;2023-05-25T07:24:45;100963.37;;;16.51;76.25
25510;BME280;13413;52.336;21.200;2023-05-25T07:27:39;100962.14;;;16.58;76.29
25510;BME280;13413;52.336;21.200;2023-05-25T07:30:33;100958.16;;;16.68;76.16
25510;BME280;13413;52.336;21.200;2023-05-25T07:33:28;100958.99;;;16.70;75.87
25510;BME280;13413;52.336;21.200;2023-05-25T07:36:21;100956.61;;;16.71;75.76
25510;BME280;13413;52.336;21.200;2023-05-25T07:44:56;100957.30;;;16.83;75.84
25510;BME280;13413;52.336;21.200;2023-05-25T07:47:50;100959.48;;;16.95;75.76
25510;BME280;13413;52.336;21.200;2023-05-25T07:50:44;100960.38;;;17.05;75.16
25510;BME280;13413;52.336;21.200;2023-05-25T07:53:38;100960.25;;;17.05;74.95
25510;BME280;13413;52.336;21.200;2023-05-25T07:56:32;100958.23;;;17.12;75.10
25510;BME280;13413;52.336;21.200;2023-05-25T07:59:26;100959.45;;;17.15;75.38
25510;BME280;13413;52.336;21.200;2023-05-25T08:02:20;100959.17;;;17.18;75.01
25510;BME280;13413;52.336;21.200;2023-05-25T08:05:28;100960.08;;;17.20;74.93
25510;BME280;13413;52.336;21.200;2023-05-25T08:08:23;100961.45;;;17.19;74.68
25510;BME280;13413;52.336;21.200;2023-05-25T08:14:26;100961.71;;;16.98;74.83
25510;BME280;13413;52.336;21.200;2023-05-25T08:17:22;100965.69;;;17.02;74.94
25510;BME280;13413;52.336;21.200;2023-05-25T08:20:15;100962.59;;;17.02;74.84
25510;BME280;13413;52.336;21.200;2023-05-25T08:23:10;100960.39;;;17.01;74.81
25510;BME280;13413;52.336;21.200;2023-05-25T08:26:04;100960.36;;;17.03;74.76
25510;BME280;13413;52.336;21.200;2023-05-25T08:28:59;100962.12;;;17.12;74.79
25510;BME280;13413;52.336;21.200;2023-05-25T08:31:53;100964.75;;;17.07;74.63
25510;BME280;13413;52.336;21.200;2023-05-25T08:34:47;100966.41;;;17.12;74.69
25510;BME280;13413;52.336;21.200;2023-05-25T08:37:41;100968.05;;;17.24;74.53
25510;BME280;13413;52.336;21.200;2023-05-25T08:40:35;100966.86;;;17.38;74.13
25510;BME280;13413;52.336;21.200;2023-05-25T08:43:32;100968.23;;;17.52;73.98
25510;BME280;13413;52.336;21.200;2023-05-25T08:46:30;100968.10;;;17.68;73.87
25510;BME280;13413;52.336;21.200;2023-05-25T08:49:26;100974.03;;;17.88;73.32
25510;BME280;13413;52.336;21.200;2023-05-25T08:55:14;100970.45;;;17.87;72.85
25510;BME280;13413;52.336;21.200;2023-05-25T08:58:15;100971.87;;;18.05;73.07
25510;BME280;13413;52.336;21.200;2023-05-25T09:01:13;100965.87;;;18.27;72.62
25510;BME280;13413;52.336;21.200;2023-05-25T09:04:08;100964.07;;;18.55;72.17
25510;BME280;13413;52.336;21.200;2023-05-25T09:07:03;100960.48;;;18.82;71.74
25510;BME280;13413;52.336;21.200;2023-05-25T09:09:59;100959.93;;;18.77;70.78
25510;BME280;13413;52.336;21.200;2023-05-25T09:12:54;100963.19;;;18.62;70.89
25510;BME280;13413;52.336;21.200;2023-05-25T09:15:49;100965.69;;;18.67;71.17
25510;BME280;13413;52.336;21.200;2023-05-25T09:18:44;100963.92;;;18.80;70.75
25510;BME280;13413;52.336;21.200;2023-05-25T09:21:38;100965.69;;;18.97;70.78
25510;BME280;13413;52.336;21.200;2023-05-25T09:24:33;100965.73;;;19.13;70.11
25510;BME280;13413;52.336;21.200;2023-05-25T09:27:27;100967.12;;;19.32;69.86
25510;BME280;13413;52.336;21.200;2023-05-25T09:30:21;100971.15;;;19.73;69.29
25510;BME280;13413;52.336;21.200;2023-05-25T09:33:16;100973.88;;;20.00;68.33
25510;BME280;13413;52.336;21.200;2023-05-25T09:36:11;100979.23;;;20.10;66.96
25510;BME280;13413;52.336;21.200;2023-05-25T09:39:06;100974.15;;;20.14;66.81
25510;BME280;13413;52.336;21.200;2023-05-25T09:42:01;100974.95;;;20.24;66.52
25510;BME280;13413;52.336;21.200;2023-05-25T09:44:55;100973.32;;;20.37;65.71
25510;BME280;13413;52.336;21.200;2023-05-25T09:47:54;100977.77;;;20.44;66.05
25510;BME280;13413;52.336;21.200;2023-05-25T09:50:49;100977.46;;;20.71;65.41
25510;BME280;13413;52.336;21.200;2023-05-25T09:53:44;100983.16;;;20.74;64.88
25510;BME280;13413;52.336;21.200;2023-05-25T09:56:37;100980.56;;;20.73;65.10
25510;BME280;13413;52.336;21.200;2023-05-25T10:04:16;100979.41;;;21.03;64.92
25510;BME280;13413;52.336;21.200;2023-05-25T10:07:11;100982.50;;;21.43;64.02
25510;BME280;13413;52.336;21.200;2023-05-25T10:10:07;100978.90;;;21.40;62.67
25510;BME280;13413;52.336;21.200;2023-05-25T10:13:03;100979.84;;;21.49;63.50
25510;BME280;13413;52.336;21.200;2023-05-25T10:16:01;100976.96;;;21.70;62.60
25510;BME280;13413;52.336;21.200;2023-05-25T10:19:00;100977.63;;;21.82;62.62
25510;BME280;13413;52.336;21.200;2023-05-25T10:22:02;100980.91;;;21.89;61.87
25510;BME280;13413;52.336;21.200;2023-05-25T10:24:58;100978.77;;;21.83;61.41
25510;BME280;13413;52.336;21.200;2023-05-25T10:28:01;100977.28;;;21.83;60.94
25510;BME280;13413;52.336;21.200;2023-05-25T10:30:56;100973.91;;;21.89;60.56
25510;BME280;13413;52.336;21.200;2023-05-25T10:33:50;100972.20;;;22.17;61.44
25510;BME280;13413;52.336;21.200;2023-05-25T10:36:45;100971.67;;;22.74;60.60
25510;BME280;13413;52.336;21.200;2023-05-25T10:39:41;100970.32;;;23.04;59.62
25510;BME280;13413;52.336;21.200;2023-05-25T10:42:36;100971.38;;;23.14;58.33
25510;BME280;13413;52.336;21.200;2023-05-25T10:45:33;100961.08;;;23.04;58.31
25510;BME280;13413;52.336;21.200;2023-05-25T10:48:35;100961.00;;;23.03;58.59
25510;BME280;13413;52.336;21.200;2023-05-25T10:51:39;100963.30;;;23.22;58.06
25510;BME280;13413;52.336;21.200;2023-05-25T10:54:35;100954.83;;;23.42;57.75
25510;BME280;13413;52.336;21.200;2023-05-25T10:57:29;100956.17;;;23.54;57.47
25510;BME280;13413;52.336;21.200;2023-05-25T11:00:24;100954.98;;;23.42;57.17
25510;BME280;13413;52.336;21.200;2023-05-25T11:03:17;100957.40;;;23.44;57.48
25510;BME280;13413;52.336;21.200;2023-05-25T11:06:12;100958.92;;;23.59;56.11
25510;BME280;13413;52.336;21.200;2023-05-25T11:09:07;100958.11;;;23.63;55.77
25510;BME280;13413;52.336;21.200;2023-05-25T11:12:25;100956.96;;;23.79;55.59
25510;BME280;13413;52.336;21.200;2023-05-25T11:18:38;100956.66;;;24.36;55.89
25510;BME280;13413;52.336;21.200;2023-05-25T11:21:44;100958.66;;;24.66;54.45
25510;BME280;13413;52.336;21.200;2023-05-25T11:24:39;100960.05;;;24.74;54.12
25510;BME280;13413;52.336;21.200;2023-05-25T11:27:46;100969.63;;;24.49;53.34
25510;BME280;13413;52.336;21.200;2023-05-25T11:30:41;100963.60;;;23.99;54.13
25510;BME280;13413;52.336;21.200;2023-05-25T11:33:36;100965.40;;;23.33;54.96
25510;BME280;13413;52.336;21.200;2023-05-25T11:36:33;100966.98;;;22.79;55.75
25510;BME280;13413;52.336;21.200;2023-05-25T11:39:28;100968.64;;;22.42;56.56
25510;BME280;13413;52.336;21.200;2023-05-25T11:42:24;100971.10;;;22.16;57.08
25510;BME280;13413;52.336;21.200;2023-05-25T11:45:22;100968.43;;;21.96;57.50
25510;BME280;13413;52.336;21.200;2023-05-25T11:48:17;100967.80;;;21.85;57.94
25510;BME280;13413;52.336;21.200;2023-05-25T11:51:11;100968.94;;;21.76;58.32
25510;BME280;13413;52.336;21.200;2023-05-25T11:54:06;100967.90;;;21.75;58.43
25510;BME280;13413;52.336;21.200;2023-05-25T11:57:02;100965.90;;;21.78;58.68
25510;BME280;13413;52.336;21.200;2023-05-25T11:59:57;100966.21;;;21.81;58.64
25510;BME280;13413;52.336;21.200;2023-05-25T12:02:51;100968.71;;;21.83;58.72
25510;BME280;13413;52.336;21.200;2023-05-25T12:05:44;100966.23;;;21.82;58.62
25510;BME280;13413;52.336;21.200;2023-05-25T12:08:39;100962.03;;;21.78;58.53
25510;BME280;13413;52.336;21.200;2023-05-25T12:11:35;100954.94;;;21.82;58.55
25510;BME280;13413;52.336;21.200;2023-05-25T12:14:28;100952.14;;;21.91;58.39
25510;BME280;13413;52.336;21.200;2023-05-25T12:23:44;100953.11;;;22.02;58.45
25510;BME280;13413;52.336;21.200;2023-05-25T12:26:46;100953.32;;;22.04;58.54
25510;BME280;13413;52.336;21.200;2023-05-25T12:29:47;100951.08;;;22.08;58.87
25510;BME280;13413;52.336;21.200;2023-05-25T12:32:59;100949.56;;;22.27;58.77
25510;BME280;13413;52.336;21.200;2023-05-25T12:35:55;100945.27;;;22.39;58.18
25510;BME280;13413;52.336;21.200;2023-05-25T12:39:00;100939.45;;;22.54;58.52
25510;BME280;13413;52.336;21.200;2023-05-25T12:41:55;100932.88;;;22.95;58.42
25510;BME280;13413;52.336;21.200;2023-05-25T12:44:55;100930.58;;;23.36;57.85
25510;BME280;13413;52.336;21.200;2023-05-25T12:47:49;100924.95;;;23.51;57.28
25510;BME280;13413;52.336;21.200;2023-05-25T12:50:57;100924.31;;;23.53;56.89
25510;BME280;13413;52.336;21.200;2023-05-25T12:53:52;100925.70;;;23.72;57.10
25510;BME280;13413;52.336;21.200;2023-05-25T12:56:55;100919.20;;;23.95;56.79
25510;BME280;13413;52.336;21.200;2023-05-25T12:59:56;100914.27;;;24.19;56.32
25510;BME280;13413;52.336;21.200;2023-05-25T13:02:51;100908.45;;;24.33;56.02
25510;BME280;13413;52.336;21.200;2023-05-25T13:05:44;100900.08;;;24.49;55.85
25510;BME280;13413;52.336;21.200;2023-05-25T13:08:38;100898.36;;;24.60;55.57
25510;BME280;13413;52.336;21.200;2023-05-25T13:11:32;100890.98;;;24.64;55.34
25510;BME280;13413;52.336;21.200;2023-05-25T13:14:28;100883.67;;;24.57;54.75
25510;BME280;13413;52.336;21.200;2023-05-25T13:17:21;100881.69;;;24.34;54.90
25510;BME280;13413;52.336;21.200;2023-05-25T13:20:15;100874.80;;;24.30;55.13
25510;BME280;13413;52.336;21.200;2023-05-25T13:23:11;100873.05;;;24.33;55.35
25510;BME280;13413;52.336;21.200;2023-05-25T13:26:06;100869.56;;;24.37;55.25
25510;BME280;13413;52.336;21.200;2023-05-25T13:29:00;100865.92;;;24.41;55.42
25510;BME280;13413;52.336;21.200;2023-05-25T13:31:54;100860.52;;;24.49;55.40
25510;BME280;13413;52.336;21.200;2023-05-25T13:34:48;100857.05;;;24.53;55.50
25510;BME280;13413;52.336;21.200;2023-05-25T13:37:42;100854.56;;;24.64;55.08
25510;BME280;13413;52.336;21.200;2023-05-25T13:40:36;100848.90;;;24.58;54.91
25510;BME280;13413;52.336;21.200;2023-05-25T13:43:31;100850.10;;;24.59;55.28
25510;BME280;13413;52.336;21.200;2023-05-25T13:46:25;100848.16;;;24.75;55.23
25510;BME280;13413;52.336;21.200;2023-05-25T13:49:20;100839.50;;;24.93;55.03
25510;BME280;13413;52.336;21.200;2023-05-25T13:52:14;100838.46;;;25.04;54.81
25510;BME280;13413;52.336;21.200;2023-05-25T13:55:09;100834.18;;;25.13;54.64
25510;BME280;13413;52.336;21.200;2023-05-25T13:58:01;100834.09;;;25.21;53.79
25510;BME280;13413;52.336;21.200;2023-05-25T14:00:56;100832.61;;;25.13;53.54
25510;BME280;13413;52.336;21.200;2023-05-25T14:03:50;100832.95;;;25.02;53.55
25510;BME280;13413;52.336;21.200;2023-05-25T14:06:45;100828.14;;;25.03;53.80
25510;BME280;13413;52.336;21.200;2023-05-25T14:09:39;100834.36;;;25.01;53.64
25510;BME280;13413;52.336;21.200;2023-05-25T14:12:33;100832.54;;;25.05;53.61
25510;BME280;13413;52.336;21.200;2023-05-25T14:15:27;100828.33;;;25.05;53.30
25510;BME280;13413;52.336;21.200;2023-05-25T14:18:22;100827.24;;;25.00;53.20
25510;BME280;13413;52.336;21.200;2023-05-25T14:21:17;100830.17;;;24.93;53.60
25510;BME280;13413;52.336;21.200;2023-05-25T14:24:10;100828.98;;;25.00;53.61
25510;BME280;13413;52.336;21.200;2023-05-25T14:27:05;100821.61;;;25.10;53.42
25510;BME280;13413;52.336;21.200;2023-05-25T14:29:59;100819.33;;;25.24;53.39
25510;BME280;13413;52.336;21.200;2023-05-25T14:32:53;100817.86;;;25.31;52.79
25510;BME280;13413;52.336;21.200;2023-05-25T14:35:46;100819.05;;;25.36;53.10
25510;BME280;13413;52.336;21.200;2023-05-25T14:44:38;100819.51;;;25.42;52.61
25510;BME280;13413;52.336;21.200;2023-05-25T14:47:33;100820.02;;;25.35;52.34
25510;BME280;13413;52.336;21.200;2023-05-25T14:50:30;100823.34;;;25.30;51.96
25510;BME280;13413;52.336;21.200;2023-05-25T14:53:27;100822.32;;;25.17;52.21
25510;BME280;13413;52.336;21.200;2023-05-25T14:56:22;100822.25;;;25.09;51.89
25510;BME280;13413;52.336;21.200;2023-05-25T14:59:16;100822.48;;;25.01;51.92
25510;BME280;13413;52.336;21.200;2023-05-25T15:02:10;100816.96;;;25.04;51.82
25510;BME280;13413;52.336;21.200;2023-05-25T15:05:05;100820.25;;;25.16;51.85
25510;BME280;13413;52.336;21.200;2023-05-25T15:07:59;100817.86;;;25.30;51.59
25510;BME280;13413;52.336;21.200;2023-05-25T15:10:54;100818.14;;;25.32;51.43
25510;BME280;13413;52.336;21.200;2023-05-25T15:13:47;100817.34;;;25.27;51.13
25510;BME280;13413;52.336;21.200;2023-05-25T15:16:41;100819.10;;;25.15;50.78
25510;BME280;13413;52.336;21.200;2023-05-25T15:19:36;100815.77;;;25.05;51.21
25510;BME280;13413;52.336;21.200;2023-05-25T15:25:25;100812.80;;;25.15;50.82
25510;BME280;13413;52.336;21.200;2023-05-25T15:28:19;100811.14;;;25.19;50.88
25510;BME280;13413;52.336;21.200;2023-05-25T15:31:13;100813.15;;;25.10;50.74
25510;BME280;13413;52.336;21.200;2023-05-25T15:34:08;100811.77;;;25.09;50.82
25510;BME280;13413;52.336;21.200;2023-05-25T15:37:03;100810.95;;;25.14;50.89
25510;BME280;13413;52.336;21.200;2023-05-25T15:39:57;100813.13;;;25.24;50.71
25510;BME280;13413;52.336;21.200;2023-05-25T15:42:51;100807.48;;;25.24;50.34
25510;BME280;13413;52.336;21.200;2023-05-25T15:45:45;100808.05;;;25.25;50.47
25510;BME280;13413;52.336;21.200;2023-05-25T15:48:39;100800.82;;;25.25;50.25
25510;BME280;13413;52.336;21.200;2023-05-25T15:51:33;100802.13;;;25.27;50.22
25510;BME280;13413;52.336;21.200;2023-05-25T15:54:27;100803.33;;;25.26;50.30
25510;BME280;13413;52.336;21.200;2023-05-25T15:57:21;100806.01;;;25.22;50.18
25510;BME280;13413;52.336;21.200;2023-05-25T16:00:17;100807.27;;;25.16;50.25
25510;BME280;13413;52.336;21.200;2023-05-25T16:03:11;100802.83;;;25.16;50.27